Time;durP1;ratioP1;P1;durP2;ratioP2;P2;SDS_P1;SDS_P2;PMS_P1;PMS_P2;Temp;Humidity;BMP_temperature;BMP_pressure;BME280_temperature;BME280_humidity;BME280_pressure;Samples;Min_cycle;Max_cycle;Signal;HPM_P1;HPM_P2
2024/04/04 00:01:59;;;;;;;;;;;14.50;61.80;;;;;;21000535;28;20285;-58
2024/04/04 00:12:00;;;;;;;;;;;14.40;62.00;;;;;;20999479;28;19920;-58
2024/04/04 00:22:01;;;;;;;;;;;14.40;62.10;;;;;;20998740;28;20320;-59
2024/04/04 00:32:03;;;;;;;;;;;14.20;62.50;;;;;;20998062;28;20321;-58
2024/04/04 00:42:04;;;;;;;;;;;14.10;62.60;;;;;;20996077;28;19940;-59
2024/04/04 00:52:09;;;;;;;;;;;14.10;63.10;;;;;;20995867;28;19920;-58
2024/04/04 01:02:10;;;;;;;;;;;14.00;63.30;;;;;;20995349;28;19912;-58
2024/04/04 01:12:12;;;;;;;;;;;13.90;63.60;;;;;;20994874;28;19948;-58
2024/04/04 01:22:13;;;;;;;;;;;13.70;64.20;;;;;;21001134;28;19908;-58
2024/04/04 01:32:15;;;;;;;;;;;13.50;64.20;;;;;;21012205;28;20008;-58
2024/04/04 01:42:16;;;;;;;;;;;13.50;64.50;;;;;;21011417;28;19940;-57
2024/04/04 01:52:18;;;;;;;;;;;13.40;64.60;;;;;;21010695;28;19963;-58
2024/04/04 02:02:19;;;;;;;;;;;13.40;64.80;;;;;;21008690;28;19936;-58
2024/04/04 02:12:20;;;;;;;;;;;13.30;65.10;;;;;;21007861;28;19967;-58
2024/04/04 02:22:21;;;;;;;;;;;13.20;65.60;;;;;;21008424;28;19908;-58
2024/04/04 02:32:22;;;;;;;;;;;13.20;65.60;;;;;;21005220;28;19917;-58
2024/04/04 02:42:23;;;;;;;;;;;13.00;66.20;;;;;;21005699;28;19928;-58
2024/04/04 02:52:25;;;;;;;;;;;12.90;66.60;;;;;;21004993;28;19921;-58
2024/04/04 03:02:25;;;;;;;;;;;12.90;67.00;;;;;;21004158;28;19920;-58
2024/04/04 03:12:27;;;;;;;;;;;12.80;66.80;;;;;;21003388;28;19974;-58
2024/04/04 03:22:29;;;;;;;;;;;12.70;66.90;;;;;;21002645;28;19909;-59
2024/04/04 03:32:31;;;;;;;;;;;12.40;66.60;;;;;;21003169;28;20391;-58
2024/04/04 03:42:32;;;;;;;;;;;12.10;67.40;;;;;;21000281;28;19920;-58
2024/04/04 03:52:33;;;;;;;;;;;12.00;67.90;;;;;;21001167;28;20365;-58
2024/04/04 04:02:34;;;;;;;;;;;11.90;67.60;;;;;;21000402;28;20374;-57
2024/04/04 04:12:36;;;;;;;;;;;11.70;68.20;;;;;;20999677;28;20289;-58
2024/04/04 04:22:37;;;;;;;;;;;11.70;68.30;;;;;;20998555;28;20268;-59
2024/04/04 04:32:38;;;;;;;;;;;11.60;68.30;;;;;;20880190;28;19928;-57
2024/04/04 04:42:39;;;;;;;;;;;11.60;68.10;;;;;;20828237;28;20349;-58
2024/04/04 04:52:41;;;;;;;;;;;11.50;68.70;;;;;;20822311;28;19921;-58
2024/04/04 05:02:42;;;;;;;;;;;11.30;68.90;;;;;;20825157;28;19913;-58
2024/04/04 05:12:43;;;;;;;;;;;11.30;69.00;;;;;;20828668;28;19921;-58
2024/04/04 05:22:44;;;;;;;;;;;11.20;69.30;;;;;;20829530;28;20364;-58
2024/04/04 05:32:47;;;;;;;;;;;11.20;69.50;;;;;;20829720;28;20390;-58
2024/04/04 05:42:48;;;;;;;;;;;11.10;69.70;;;;;;20827822;28;19924;-56
2024/04/04 05:52:49;;;;;;;;;;;11.20;69.50;;;;;;20826888;28;19964;-57
2024/04/04 06:02:51;;;;;;;;;;;11.20;69.20;;;;;;20826919;28;19944;-58
2024/04/04 06:12:53;;;;;;;;;;;11.10;69.30;;;;;;20838387;28;19925;-58
2024/04/04 06:22:55;;;;;;;;;;;11.10;69.20;;;;;;20841706;28;19909;-57
2024/04/04 06:32:56;;;;;;;;;;;11.00;69.10;;;;;;20840645;28;19963;-58
2024/04/04 06:43:00;;;;;;;;;;;11.10;69.10;;;;;;20829845;28;20386;-58
2024/04/04 06:53:03;;;;;;;;;;;11.20;69.20;;;;;;20757351;28;20012;-59
2024/04/04 07:03:04;;;;;;;;;;;11.20;69.30;;;;;;20756591;28;19913;-58
2024/04/04 07:13:07;;;;;;;;;;;11.30;69.00;;;;;;20756153;28;19949;-59
2024/04/04 07:23:09;;;;;;;;;;;11.50;68.50;;;;;;20755972;28;19996;-59
2024/04/04 07:33:11;;;;;;;;;;;11.70;68.10;;;;;;20755861;28;20259;-58
2024/04/04 07:43:13;;;;;;;;;;;12.00;67.60;;;;;;20767946;28;20008;-59
2024/04/04 07:53:15;;;;;;;;;;;12.20;66.80;;;;;;20834843;28;19928;-59
2024/04/04 08:03:18;;;;;;;;;;;12.30;66.30;;;;;;20834215;28;19917;-59
2024/04/04 08:13:21;;;;;;;;;;;12.60;65.80;;;;;;20832881;28;20039;-59
2024/04/04 08:23:23;;;;;;;;;;;12.80;65.10;;;;;;20833517;28;19909;-59
2024/04/04 08:33:27;;;;;;;;;;;13.20;65.30;;;;;;20831692;28;19921;-60
2024/04/04 08:43:29;;;;;;;;;;;13.30;65.10;;;;;;20831074;28;19931;-58
2024/04/04 08:53:31;;;;;;;;;;;13.70;64.60;;;;;;20831951;28;19921;-59
2024/04/04 09:03:32;;;;;;;;;;;14.00;63.80;;;;;;20830103;28;19913;-60
2024/04/04 09:13:33;;;;;;;;;;;14.20;63.30;;;;;;20829415;28;19929;-60
2024/04/04 09:23:34;;;;;;;;;;;14.50;62.10;;;;;;20828735;28;20425;-58
2024/04/04 09:33:37;;;;;;;;;;;14.50;62.50;;;;;;20829865;28;20420;-60
2024/04/04 09:43:38;;;;;;;;;;;14.80;61.90;;;;;;20833129;28;19921;-58
2024/04/04 09:53:40;;;;;;;;;;;15.10;61.60;;;;;;20844772;28;19994;-54
2024/04/04 10:03:46;;;;;;;;;;;15.80;59.70;;;;;;20844348;28;19941;-56
2024/04/04 10:13:48;;;;;;;;;;;16.20;59.00;;;;;;20916865;28;19921;-58
2024/04/04 10:23:53;;;;;;;;;;;16.30;58.50;;;;;;20923577;28;20003;-61
2024/04/04 10:34:04;;;;;;;;;;;16.50;59.30;;;;;;20924742;28;20405;-58
2024/04/04 10:44:13;;;;;;;;;;;16.90;58.10;;;;;;20902132;28;19964;-56
2024/04/04 10:54:15;;;;;;;;;;;17.20;57.60;;;;;;20838094;28;19925;-58
2024/04/04 11:04:16;;;;;;;;;;;17.00;56.80;;;;;;20837714;28;19941;-61
2024/04/04 11:14:18;;;;;;;;;;;17.00;57.20;;;;;;20837376;28;20014;-56
2024/04/04 11:24:22;;;;;;;;;;;17.20;57.40;;;;;;20837230;28;19916;-56
2024/04/04 11:34:23;;;;;;;;;;;17.50;56.70;;;;;;20836357;28;19917;-56
2024/04/04 11:44:25;;;;;;;;;;;17.60;56.30;;;;;;20857093;28;19921;-56
2024/04/04 11:54:28;;;;;;;;;;;17.70;55.90;;;;;;20916906;28;19921;-59
2024/04/04 12:04:38;;;;;;;;;;;18.10;55.70;;;;;;20918086;28;20031;-57
2024/04/04 12:14:44;;;;;;;;;;;18.40;53.30;;;;;;20917264;28;20289;-58
2024/04/04 12:24:45;;;;;;;;;;;18.50;53.30;;;;;;20916434;28;20366;-59
2024/04/04 12:34:48;;;;;;;;;;;18.70;51.90;;;;;;20913548;28;19952;-57
2024/04/04 12:44:49;;;;;;;;;;;18.70;52.50;;;;;;20889010;28;20374;-59
2024/04/04 12:54:50;;;;;;;;;;;18.80;52.50;;;;;;20830408;28;20055;-60
2024/04/04 13:04:52;;;;;;;;;;;18.90;51.80;;;;;;20822664;28;20334;-60
2024/04/04 13:14:53;;;;;;;;;;;19.10;50.60;;;;;;20826614;28;19921;-61
2024/04/04 13:24:54;;;;;;;;;;;19.20;48.80;;;;;;20830074;28;20294;-60
2024/04/04 13:34:55;;;;;;;;;;;19.30;48.70;;;;;;20828592;28;19961;-60
2024/04/04 13:44:56;;;;;;;;;;;19.60;47.70;;;;;;20828368;28;20012;-60
2024/04/04 13:55:00;;;;;;;;;;;19.60;46.50;;;;;;20828395;28;19921;-59
2024/04/04 14:05:01;;;;;;;;;;;19.80;47.50;;;;;;20828310;28;19913;-61
2024/04/04 14:15:02;;;;;;;;;;;19.90;46.20;;;;;;20827648;28;20020;-60
2024/04/04 14:25:06;;;;;;;;;;;20.00;44.90;;;;;;20827777;28;20012;-60
2024/04/04 14:35:08;;;;;;;;;;;20.00;46.80;;;;;;20840281;28;19952;-60
2024/04/04 14:45:11;;;;;;;;;;;20.00;47.20;;;;;;20868924;28;19920;-60
2024/04/04 14:55:15;;;;;;;;;;;20.10;46.90;;;;;;20924171;28;20002;-59
2024/04/04 15:05:16;;;;;;;;;;;20.10;44.90;;;;;;20921669;28;19951;-59
2024/04/04 15:15:18;;;;;;;;;;;20.20;44.50;;;;;;20920254;28;19928;-59
2024/04/04 15:25:20;;;;;;;;;;;20.30;44.70;;;;;;20920122;28;19971;-60
2024/04/04 15:35:21;;;;;;;;;;;20.20;45.20;;;;;;20919490;28;19933;-60
2024/04/04 15:45:23;;;;;;;;;;;20.40;44.00;;;;;;20918003;28;19921;-60
2024/04/04 15:55:24;;;;;;;;;;;20.30;44.50;;;;;;20917666;28;20382;-60
2024/04/04 16:05:25;;;;;;;;;;;20.30;45.20;;;;;;20916781;28;19997;-60
2024/04/04 16:15:27;;;;;;;;;;;20.30;46.00;;;;;;20915657;28;19921;-59
2024/04/04 16:25:28;;;;;;;;;;;20.50;46.20;;;;;;20913718;28;19913;-58
2024/04/04 16:35:31;;;;;;;;;;;20.50;46.20;;;;;;20896826;28;20331;-56
2024/04/04 16:45:32;;;;;;;;;;;20.40;47.40;;;;;;20819595;28;19925;-56
2024/04/04 16:55:33;;;;;;;;;;;20.40;48.00;;;;;;20898725;28;19928;-56
2024/04/04 17:05:35;;;;;;;;;;;20.40;48.30;;;;;;20868879;28;19913;-56
2024/04/04 17:15:37;;;;;;;;;;;20.30;48.70;;;;;;20842834;28;19927;-56
2024/04/04 17:25:38;;;;;;;;;;;20.20;49.10;;;;;;20856965;28;19912;-55
2024/04/04 17:35:39;;;;;;;;;;;20.20;49.00;;;;;;20851623;28;19924;-57
2024/04/04 17:45:40;;;;;;;;;;;20.10;48.80;;;;;;20848197;28;20332;-57
2024/04/04 17:55:42;;;;;;;;;;;20.00;49.10;;;;;;20870872;28;19921;-56
2024/04/04 18:05:43;;;;;;;;;;;19.90;49.60;;;;;;20909066;28;19923;-54
2024/04/04 18:15:45;;;;;;;;;;;19.90;50.10;;;;;;20909936;28;20348;-57
2024/04/04 18:25:48;;;;;;;;;;;;;;;;;;20882664;28;19913;-58
2024/04/04 18:35:49;;;;;;;;;;;;;;;;;;20826182;28;19972;-59
2024/04/04 18:45:50;;;;;;;;;;;;;;;;;;20897142;28;19944;-61
2024/04/04 18:55:54;;;;;;;;;;;;;;;;;;20997224;28;19927;-61
2024/04/04 19:05:55;;;;;;;;;;;;;;;;;;21001193;28;19908;-60
2024/04/04 19:15:59;;;;;;;;;;;19.90;49.90;;;;;;21002369;28;19966;-60
2024/04/04 19:26:01;;;;;;;;;;;;;;;;;;21003078;28;19987;-60
2024/04/04 19:36:04;;;;;;;;;;;19.80;50.50;;;;;;21002275;28;20324;-60
2024/04/04 19:46:06;;;;;;;;;;;18.70;53.90;;;;;;21001870;28;20396;-60
2024/04/04 19:56:08;;;;;;;;;;;18.50;54.70;;;;;;21001924;28;20089;-60
2024/04/04 20:06:09;;;;;;;;;;;18.30;56.50;;;;;;20999841;28;19912;-60
2024/04/04 20:16:10;;;;;;;;;;;18.20;57.10;;;;;;20999824;28;20499;-60
2024/04/04 20:26:12;;;;;;;;;;;18.10;57.20;;;;;;20998082;28;19912;-59
2024/04/04 20:36:13;;;;;;;;;;;17.90;57.20;;;;;;20998626;28;19979;-60
2024/04/04 20:46:13;;;;;;;;;;;17.80;58.10;;;;;;20997074;28;19928;-60
2024/04/04 20:56:14;;;;;;;;;;;17.60;58.60;;;;;;20996718;28;19921;-60
2024/04/04 21:06:16;;;;;;;;;;;17.40;58.80;;;;;;20996230;28;20457;-60
2024/04/04 21:16:18;;;;;;;;;;;17.20;59.20;;;;;;20997183;28;19920;-60
2024/04/04 21:26:20;;;;;;;;;;;17.10;59.40;;;;;;20996779;28;19995;-59
2024/04/04 21:36:22;;;;;;;;;;;17.00;59.70;;;;;;20995412;28;19917;-61
2024/04/04 21:46:24;;;;;;;;;;;16.90;60.50;;;;;;21011074;28;19921;-62
2024/04/04 21:56:27;;;;;;;;;;;16.70;61.20;;;;;;21011835;28;20366;-59
2024/04/04 22:06:28;;;;;;;;;;;16.60;62.00;;;;;;21009854;28;19916;-60
2024/04/04 22:16:29;;;;;;;;;;;16.50;62.20;;;;;;21010090;28;20353;-60
2024/04/04 22:26:30;;;;;;;;;;;16.40;62.60;;;;;;21008232;28;19912;-60
2024/04/04 22:36:31;;;;;;;;;;;16.30;63.00;;;;;;21008745;28;20437;-60
2024/04/04 22:46:32;;;;;;;;;;;16.30;63.50;;;;;;21008490;28;19920;-60
2024/04/04 22:56:35;;;;;;;;;;;16.20;63.70;;;;;;21007520;28;20262;-60
2024/04/04 23:06:36;;;;;;;;;;;16.20;64.00;;;;;;21005567;28;19978;-59
2024/04/04 23:16:37;;;;;;;;;;;16.00;64.40;;;;;;21004717;28;19928;-60
2024/04/04 23:26:38;;;;;;;;;;;15.90;64.80;;;;;;21005334;28;19912;-60
2024/04/04 23:36:39;;;;;;;;;;;15.70;65.50;;;;;;21003129;28;20397;-59
2024/04/04 23:46:40;;;;;;;;;;;15.60;66.10;;;;;;21003021;28;19927;-60
2024/04/04 23:56:42;;;;;;;;;;;15.50;66.50;;;;;;21001429;28;19927;-59
